sensor_id;sensor_type;location;lat;lon;timestamp;P1;durP1;ratioP1;P2;durP2;ratioP2
43429;SDS011;29028;43.234;27.896;2022-07-31T04:01:37;9.03;;;7.43;;
43429;SDS011;29028;43.234;27.896;2022-07-31T04:01:59;9.75;;;7.63;;
43429;SDS011;29028;43.234;27.896;2022-07-31T04:02:21;8.52;;;7.53;;
43429;SDS011;29028;43.234;27.896;2022-07-31T04:02:41;9.30;;;7.93;;
43429;SDS011;29028;43.234;27.896;2022-07-31T04:03:06;8.93;;;7.53;;
43429;SDS011;29028;43.234;27.896;2022-07-31T04:03:29;9.05;;;7.53;;
43429;SDS011;29028;43.234;27.896;2022-07-31T04:03:56;9.70;;;7.80;;
43429;SDS011;29028;43.234;27.896;2022-07-31T04:04:17;9.50;;;7.78;;
43429;SDS011;29028;43.234;27.896;2022-07-31T04:04:38;9.48;;;8.18;;
43429;SDS011;29028;43.234;27.896;2022-07-31T04:05:00;9.27;;;7.82;;
43429;SDS011;29028;43.234;27.896;2022-07-31T04:05:22;8.82;;;6.90;;
43429;SDS011;29028;43.234;27.896;2022-07-31T04:05:43;8.60;;;7.13;;
43429;SDS011;29028;43.234;27.896;2022-07-31T04:06:05;8.77;;;7.82;;
43429;SDS011;29028;43.234;27.896;2022-07-31T04:06:26;8.50;;;7.60;;
43429;SDS011;29028;43.234;27.896;2022-07-31T04:06:47;9.57;;;7.85;;
43429;SDS011;29028;43.234;27.896;2022-07-31T04:07:08;10.52;;;7.43;;
43429;SDS011;29028;43.234;27.896;2022-07-31T04:07:30;8.07;;;7.20;;
43429;SDS011;29028;43.234;27.896;2022-07-31T04:07:51;8.35;;;7.20;;
43429;SDS011;29028;43.234;27.896;2022-07-31T04:08:12;9.33;;;7.73;;
43429;SDS011;29028;43.234;27.896;2022-07-31T04:08:34;8.43;;;7.63;;
43429;SDS011;29028;43.234;27.896;2022-07-31T04:08:56;8.00;;;7.20;;
43429;SDS011;29028;43.234;27.896;2022-07-31T04:09:17;9.50;;;7.03;;
43429;SDS011;29028;43.234;27.896;2022-07-31T04:09:39;8.80;;;7.00;;
43429;SDS011;29028;43.234;27.896;2022-07-31T04:10:00;9.13;;;7.43;;
43429;SDS011;29028;43.234;27.896;2022-07-31T04:10:22;9.73;;;7.15;;
43429;SDS011;29028;43.234;27.896;2022-07-31T04:10:44;9.57;;;7.15;;
43429;SDS011;29028;43.234;27.896;2022-07-31T04:11:04;7.95;;;7.15;;
43429;SDS011;29028;43.234;27.896;2022-07-31T04:11:25;8.57;;;7.18;;
43429;SDS011;29028;43.234;27.896;2022-07-31T04:11:47;8.45;;;7.45;;
43429;SDS011;29028;43.234;27.896;2022-07-31T04:12:08;9.38;;;7.47;;
43429;SDS011;29028;43.234;27.896;2022-07-31T04:12:29;8.77;;;7.70;;
43429;SDS011;29028;43.234;27.896;2022-07-31T04:12:50;10.77;;;7.45;;
43429;SDS011;29028;43.234;27.896;2022-07-31T04:13:12;11.10;;;7.40;;
43429;SDS011;29028;43.234;27.896;2022-07-31T04:13:33;8.45;;;7.45;;
43429;SDS011;29028;43.234;27.896;2022-07-31T04:13:56;8.13;;;7.32;;
43429;SDS011;29028;43.234;27.896;2022-07-31T04:14:17;8.40;;;7.50;;
43429;SDS011;29028;43.234;27.896;2022-07-31T04:14:39;8.32;;;7.45;;
43429;SDS011;29028;43.234;27.896;2022-07-31T04:14:59;9.25;;;7.30;;
43429;SDS011;29028;43.234;27.896;2022-07-31T04:15:20;8.20;;;7.05;;
43429;SDS011;29028;43.234;27.896;2022-07-31T04:15:42;9.20;;;7.20;;
43429;SDS011;29028;43.234;27.896;2022-07-31T04:16:03;11.03;;;7.40;;
43429;SDS011;29028;43.234;27.896;2022-07-31T04:16:24;9.75;;;7.70;;
43429;SDS011;29028;43.234;27.896;2022-07-31T04:16:46;9.88;;;7.45;;
43429;SDS011;29028;43.234;27.896;2022-07-31T04:17:11;8.00;;;7.20;;
43429;SDS011;29028;43.234;27.896;2022-07-31T04:17:32;8.90;;;7.00;;
43429;SDS011;29028;43.234;27.896;2022-07-31T04:17:53;8.27;;;6.90;;
43429;SDS011;29028;43.234;27.896;2022-07-31T04:18:15;7.97;;;7.00;;
43429;SDS011;29028;43.234;27.896;2022-07-31T04:18:35;8.07;;;7.28;;
43429;SDS011;29028;43.234;27.896;2022-07-31T04:18:56;8.03;;;7.23;;
43429;SDS011;29028;43.234;27.896;2022-07-31T04:19:17;8.05;;;7.25;;
43429;SDS011;29028;43.234;27.896;2022-07-31T04:19:38;8.23;;;7.43;;
43429;SDS011;29028;43.234;27.896;2022-07-31T04:20:00;8.25;;;7.32;;
43429;SDS011;29028;43.234;27.896;2022-07-31T04:20:21;9.32;;;7.43;;
43429;SDS011;29028;43.234;27.896;2022-07-31T04:20:42;8.85;;;7.10;;
43429;SDS011;29028;43.234;27.896;2022-07-31T04:21:04;9.32;;;7.03;;
43429;SDS011;29028;43.234;27.896;2022-07-31T04:21:25;9.20;;;7.15;;
43429;SDS011;29028;43.234;27.896;2022-07-31T04:21:46;8.55;;;7.28;;
43429;SDS011;29028;43.234;27.896;2022-07-31T04:22:09;8.15;;;7.22;;
43429;SDS011;29028;43.234;27.896;2022-07-31T04:22:31;9.63;;;7.65;;
43429;SDS011;29028;43.234;27.896;2022-07-31T04:22:51;9.33;;;8.27;;
43429;SDS011;29028;43.234;27.896;2022-07-31T04:23:12;9.45;;;8.40;;
43429;SDS011;29028;43.234;27.896;2022-07-31T04:23:34;9.45;;;8.55;;
43429;SDS011;29028;43.234;27.896;2022-07-31T04:23:55;9.50;;;8.52;;
43429;SDS011;29028;43.234;27.896;2022-07-31T04:24:16;10.50;;;9.13;;
43429;SDS011;29028;43.234;27.896;2022-07-31T04:24:37;11.90;;;9.82;;
43429;SDS011;29028;43.234;27.896;2022-07-31T04:24:58;12.48;;;11.18;;
43429;SDS011;29028;43.234;27.896;2022-07-31T04:25:20;13.05;;;11.50;;
43429;SDS011;29028;43.234;27.896;2022-07-31T04:25:41;13.05;;;11.68;;
43429;SDS011;29028;43.234;27.896;2022-07-31T04:26:01;13.35;;;11.60;;
43429;SDS011;29028;43.234;27.896;2022-07-31T04:26:23;12.07;;;10.57;;
43429;SDS011;29028;43.234;27.896;2022-07-31T04:26:43;12.48;;;10.05;;
43429;SDS011;29028;43.234;27.896;2022-07-31T04:27:07;12.43;;;10.82;;
43429;SDS011;29028;43.234;27.896;2022-07-31T04:27:28;14.85;;;11.63;;
43429;SDS011;29028;43.234;27.896;2022-07-31T04:27:49;12.98;;;11.32;;
43429;SDS011;29028;43.234;27.896;2022-07-31T04:28:11;14.60;;;12.55;;
43429;SDS011;29028;43.234;27.896;2022-07-31T04:28:32;14.30;;;12.50;;
43429;SDS011;29028;43.234;27.896;2022-07-31T04:28:53;14.50;;;12.90;;
43429;SDS011;29028;43.234;27.896;2022-07-31T04:29:13;17.02;;;14.23;;
43429;SDS011;29028;43.234;27.896;2022-07-31T04:29:34;17.52;;;14.35;;
43429;SDS011;29028;43.234;27.896;2022-07-31T04:29:56;15.93;;;14.25;;
43429;SDS011;29028;43.234;27.896;2022-07-31T04:30:17;15.18;;;13.65;;
43429;SDS011;29028;43.234;27.896;2022-07-31T04:30:38;14.68;;;13.07;;
43429;SDS011;29028;43.234;27.896;2022-07-31T04:30:59;18.67;;;14.98;;
43429;SDS011;29028;43.234;27.896;2022-07-31T04:31:20;18.92;;;15.15;;
43429;SDS011;29028;43.234;27.896;2022-07-31T04:31:42;19.30;;;15.20;;
43429;SDS011;29028;43.234;27.896;2022-07-31T04:32:05;19.07;;;14.90;;
43429;SDS011;29028;43.234;27.896;2022-07-31T04:32:26;18.17;;;16.30;;
43429;SDS011;29028;43.234;27.896;2022-07-31T04:32:47;18.08;;;14.95;;
43429;SDS011;29028;43.234;27.896;2022-07-31T04:33:08;20.65;;;16.75;;
43429;SDS011;29028;43.234;27.896;2022-07-31T04:33:29;19.38;;;16.77;;
43429;SDS011;29028;43.234;27.896;2022-07-31T04:33:50;17.67;;;15.57;;
43429;SDS011;29028;43.234;27.896;2022-07-31T04:34:11;16.30;;;14.55;;
43429;SDS011;29028;43.234;27.896;2022-07-31T04:34:32;19.00;;;15.98;;
43429;SDS011;29028;43.234;27.896;2022-07-31T04:34:54;17.38;;;14.98;;
43429;SDS011;29028;43.234;27.896;2022-07-31T04:35:14;17.90;;;15.90;;
43429;SDS011;29028;43.234;27.896;2022-07-31T04:35:35;18.57;;;15.47;;
43429;SDS011;29028;43.234;27.896;2022-07-31T04:35:56;22.27;;;17.25;;
43429;SDS011;29028;43.234;27.896;2022-07-31T04:36:18;20.95;;;17.85;;
43429;SDS011;29028;43.234;27.896;2022-07-31T04:36:39;18.60;;;16.30;;
43429;SDS011;29028;43.234;27.896;2022-07-31T04:37:00;18.38;;;16.38;;
43429;SDS011;29028;43.234;27.896;2022-07-31T04:37:21;19.75;;;16.52;;
43429;SDS011;29028;43.234;27.896;2022-07-31T04:37:43;20.30;;;16.80;;
43429;SDS011;29028;43.234;27.896;2022-07-31T04:38:03;20.02;;;16.70;;
43429;SDS011;29028;43.234;27.896;2022-07-31T04:38:24;18.07;;;15.87;;
43429;SDS011;29028;43.234;27.896;2022-07-31T04:38:45;18.88;;;15.90;;
43429;SDS011;29028;43.234;27.896;2022-07-31T04:39:07;18.33;;;16.42;;
43429;SDS011;29028;43.234;27.896;2022-07-31T04:39:28;19.52;;;17.10;;
43429;SDS011;29028;43.234;27.896;2022-07-31T04:39:49;20.70;;;15.20;;
43429;SDS011;29028;43.234;27.896;2022-07-31T04:40:10;20.30;;;16.05;;
43429;SDS011;29028;43.234;27.896;2022-07-31T04:40:32;17.17;;;14.38;;
43429;SDS011;29028;43.234;27.896;2022-07-31T04:40:53;16.77;;;13.88;;
43429;SDS011;29028;43.234;27.896;2022-07-31T04:41:14;15.75;;;13.43;;
43429;SDS011;29028;43.234;27.896;2022-07-31T04:41:36;16.50;;;14.38;;
43429;SDS011;29028;43.234;27.896;2022-07-31T04:41:57;19.00;;;14.63;;
43429;SDS011;29028;43.234;27.896;2022-07-31T04:42:19;16.63;;;13.73;;
43429;SDS011;29028;43.234;27.896;2022-07-31T04:42:40;17.55;;;14.07;;
43429;SDS011;29028;43.234;27.896;2022-07-31T04:43:01;17.38;;;13.85;;
43429;SDS011;29028;43.234;27.896;2022-07-31T04:43:23;17.40;;;13.35;;
43429;SDS011;29028;43.234;27.896;2022-07-31T04:43:43;16.70;;;13.13;;
43429;SDS011;29028;43.234;27.896;2022-07-31T04:44:04;16.60;;;12.38;;
43429;SDS011;29028;43.234;27.896;2022-07-31T04:44:25;14.48;;;12.20;;
43429;SDS011;29028;43.234;27.896;2022-07-31T04:44:46;13.05;;;11.50;;
43429;SDS011;29028;43.234;27.896;2022-07-31T04:45:08;13.57;;;11.25;;
43429;SDS011;29028;43.234;27.896;2022-07-31T04:45:29;13.70;;;11.30;;
43429;SDS011;29028;43.234;27.896;2022-07-31T04:45:50;14.13;;;11.75;;
43429;SDS011;29028;43.234;27.896;2022-07-31T04:46:11;13.85;;;12.15;;
43429;SDS011;29028;43.234;27.896;2022-07-31T04:46:32;16.75;;;14.07;;
43429;SDS011;29028;43.234;27.896;2022-07-31T04:46:57;17.67;;;15.80;;
43429;SDS011;29028;43.234;27.896;2022-07-31T04:47:20;17.33;;;15.52;;
43429;SDS011;29028;43.234;27.896;2022-07-31T04:47:40;19.25;;;17.10;;
43429;SDS011;29028;43.234;27.896;2022-07-31T04:48:03;20.42;;;16.98;;
43429;SDS011;29028;43.234;27.896;2022-07-31T04:48:24;20.63;;;17.70;;
43429;SDS011;29028;43.234;27.896;2022-07-31T04:48:45;19.52;;;17.42;;
43429;SDS011;29028;43.234;27.896;2022-07-31T04:49:05;20.42;;;16.52;;
43429;SDS011;29028;43.234;27.896;2022-07-31T04:49:27;19.50;;;17.13;;
43429;SDS011;29028;43.234;27.896;2022-07-31T04:49:49;19.90;;;16.45;;
43429;SDS011;29028;43.234;27.896;2022-07-31T04:50:10;22.63;;;18.83;;
43429;SDS011;29028;43.234;27.896;2022-07-31T04:50:31;20.67;;;17.40;;
43429;SDS011;29028;43.234;27.896;2022-07-31T04:50:52;19.67;;;16.03;;
43429;SDS011;29028;43.234;27.896;2022-07-31T04:51:17;18.88;;;16.40;;
43429;SDS011;29028;43.234;27.896;2022-07-31T04:51:38;14.93;;;13.25;;
43429;SDS011;29028;43.234;27.896;2022-07-31T04:51:59;16.63;;;13.82;;
43429;SDS011;29028;43.234;27.896;2022-07-31T04:52:20;17.20;;;15.32;;
43429;SDS011;29028;43.234;27.896;2022-07-31T04:52:42;17.50;;;14.35;;
43429;SDS011;29028;43.234;27.896;2022-07-31T04:53:03;16.25;;;13.57;;
43429;SDS011;29028;43.234;27.896;2022-07-31T04:53:24;15.98;;;13.23;;
43429;SDS011;29028;43.234;27.896;2022-07-31T04:53:44;17.25;;;13.05;;
43429;SDS011;29028;43.234;27.896;2022-07-31T04:54:05;17.60;;;12.85;;
43429;SDS011;29028;43.234;27.896;2022-07-31T04:54:26;17.10;;;12.45;;
43429;SDS011;29028;43.234;27.896;2022-07-31T04:54:48;14.30;;;11.65;;
43429;SDS011;29028;43.234;27.896;2022-07-31T04:55:09;13.10;;;11.00;;
43429;SDS011;29028;43.234;27.896;2022-07-31T04:55:30;12.20;;;10.90;;
43429;SDS011;29028;43.234;27.896;2022-07-31T04:55:51;14.27;;;11.17;;
43429;SDS011;29028;43.234;27.896;2022-07-31T04:56:27;12.20;;;10.82;;
43429;SDS011;29028;43.234;27.896;2022-07-31T04:56:56;14.07;;;10.75;;
43429;SDS011;29028;43.234;27.896;2022-07-31T04:57:17;13.75;;;10.63;;
43429;SDS011;29028;43.234;27.896;2022-07-31T04:57:38;13.13;;;10.25;;
43429;SDS011;29028;43.234;27.896;2022-07-31T04:58:00;13.30;;;10.52;;
43429;SDS011;29028;43.234;27.896;2022-07-31T04:58:21;12.23;;;10.65;;
43429;SDS011;29028;43.234;27.896;2022-07-31T04:58:41;12.07;;;10.70;;
43429;SDS011;29028;43.234;27.896;2022-07-31T04:59:03;12.73;;;11.03;;
43429;SDS011;29028;43.234;27.896;2022-07-31T04:59:25;12.90;;;10.68;;
43429;SDS011;29028;43.234;27.896;2022-07-31T04:59:47;13.77;;;10.50;;
43429;SDS011;29028;43.234;27.896;2022-07-31T05:00:09;13.50;;;10.63;;
43429;SDS011;29028;43.234;27.896;2022-07-31T05:00:30;12.75;;;10.45;;
43429;SDS011;29028;43.234;27.896;2022-07-31T05:00:52;11.48;;;10.00;;
43429;SDS011;29028;43.234;27.896;2022-07-31T05:01:13;11.80;;;10.02;;
43429;SDS011;29028;43.234;27.896;2022-07-31T05:01:34;11.23;;;10.00;;
43429;SDS011;29028;43.234;27.896;2022-07-31T05:01:55;11.65;;;10.35;;
43429;SDS011;29028;43.234;27.896;2022-07-31T05:02:17;11.48;;;10.27;;
43429;SDS011;29028;43.234;27.896;2022-07-31T05:02:39;11.03;;;9.83;;
43429;SDS011;29028;43.234;27.896;2022-07-31T05:03:00;11.63;;;9.75;;
43429;SDS011;29028;43.234;27.896;2022-07-31T05:03:21;11.53;;;9.77;;
43429;SDS011;29028;43.234;27.896;2022-07-31T05:03:42;14.07;;;10.35;;
43429;SDS011;29028;43.234;27.896;2022-07-31T05:04:02;12.82;;;10.20;;
43429;SDS011;29028;43.234;27.896;2022-07-31T05:04:25;12.02;;;10.75;;
43429;SDS011;29028;43.234;27.896;2022-07-31T05:04:46;11.38;;;10.18;;
43429;SDS011;29028;43.234;27.896;2022-07-31T05:05:07;10.77;;;9.68;;
43429;SDS011;29028;43.234;27.896;2022-07-31T05:05:28;10.13;;;9.13;;
43429;SDS011;29028;43.234;27.896;2022-07-31T05:05:50;9.75;;;8.27;;
43429;SDS011;29028;43.234;27.896;2022-07-31T05:06:11;10.00;;;8.50;;
43429;SDS011;29028;43.234;27.896;2022-07-31T05:06:33;10.90;;;9.75;;
43429;SDS011;29028;43.234;27.896;2022-07-31T05:06:54;12.68;;;9.77;;
43429;SDS011;29028;43.234;27.896;2022-07-31T05:07:16;10.82;;;8.40;;
43429;SDS011;29028;43.234;27.896;2022-07-31T05:07:37;11.15;;;9.13;;
43429;SDS011;29028;43.234;27.896;2022-07-31T05:07:59;13.97;;;9.90;;
43429;SDS011;29028;43.234;27.896;2022-07-31T05:08:20;13.15;;;10.15;;
43429;SDS011;29028;43.234;27.896;2022-07-31T05:08:41;12.90;;;10.10;;
43429;SDS011;29028;43.234;27.896;2022-07-31T05:09:03;11.15;;;9.45;;
43429;SDS011;29028;43.234;27.896;2022-07-31T05:09:25;12.20;;;9.93;;
43429;SDS011;29028;43.234;27.896;2022-07-31T05:09:52;12.73;;;10.38;;
43429;SDS011;29028;43.234;27.896;2022-07-31T05:10:14;12.77;;;10.25;;
43429;SDS011;29028;43.234;27.896;2022-07-31T05:10:49;13.82;;;11.02;;
43429;SDS011;29028;43.234;27.896;2022-07-31T05:11:28;10.40;;;8.98;;
43429;SDS011;29028;43.234;27.896;2022-07-31T05:11:49;10.07;;;9.07;;
43429;SDS011;29028;43.234;27.896;2022-07-31T05:12:12;9.88;;;8.88;;
43429;SDS011;29028;43.234;27.896;2022-07-31T05:12:33;10.90;;;9.77;;
43429;SDS011;29028;43.234;27.896;2022-07-31T05:12:54;11.90;;;9.52;;
43429;SDS011;29028;43.234;27.896;2022-07-31T05:13:14;11.80;;;9.20;;
43429;SDS011;29028;43.234;27.896;2022-07-31T05:13:35;10.63;;;9.07;;
43429;SDS011;29028;43.234;27.896;2022-07-31T05:13:57;11.00;;;8.63;;
43429;SDS011;29028;43.234;27.896;2022-07-31T05:14:20;11.82;;;8.90;;
43429;SDS011;29028;43.234;27.896;2022-07-31T05:14:41;10.90;;;8.57;;
43429;SDS011;29028;43.234;27.896;2022-07-31T05:15:02;11.10;;;8.00;;
43429;SDS011;29028;43.234;27.896;2022-07-31T05:15:24;9.65;;;8.07;;
43429;SDS011;29028;43.234;27.896;2022-07-31T05:15:45;10.52;;;8.35;;
43429;SDS011;29028;43.234;27.896;2022-07-31T05:16:09;9.27;;;8.10;;
43429;SDS011;29028;43.234;27.896;2022-07-31T05:16:31;11.10;;;8.10;;
43429;SDS011;29028;43.234;27.896;2022-07-31T05:16:52;10.07;;;8.25;;
43429;SDS011;29028;43.234;27.896;2022-07-31T05:17:14;10.18;;;8.50;;
43429;SDS011;29028;43.234;27.896;2022-07-31T05:17:35;10.45;;;8.57;;
43429;SDS011;29028;43.234;27.896;2022-07-31T05:17:57;9.52;;;8.02;;
43429;SDS011;29028;43.234;27.896;2022-07-31T05:18:18;10.35;;;7.25;;
43429;SDS011;29028;43.234;27.896;2022-07-31T05:18:39;10.20;;;7.82;;
43429;SDS011;29028;43.234;27.896;2022-07-31T05:19:00;9.65;;;7.82;;
43429;SDS011;29028;43.234;27.896;2022-07-31T05:19:22;9.85;;;7.88;;
43429;SDS011;29028;43.234;27.896;2022-07-31T05:19:48;10.88;;;8.35;;
43429;SDS011;29028;43.234;27.896;2022-07-31T05:20:10;9.25;;;7.72;;
43429;SDS011;29028;43.234;27.896;2022-07-31T05:20:31;8.55;;;7.65;;
43429;SDS011;29028;43.234;27.896;2022-07-31T05:20:53;8.82;;;7.93;;
43429;SDS011;29028;43.234;27.896;2022-07-31T05:21:14;8.47;;;7.67;;
43429;SDS011;29028;43.234;27.896;2022-07-31T05:21:35;8.95;;;8.05;;
43429;SDS011;29028;43.234;27.896;2022-07-31T05:21:57;9.75;;;7.95;;
43429;SDS011;29028;43.234;27.896;2022-07-31T05:22:18;9.75;;;7.70;;
43429;SDS011;29028;43.234;27.896;2022-07-31T05:22:39;9.32;;;7.22;;
43429;SDS011;29028;43.234;27.896;2022-07-31T05:23:00;7.97;;;7.18;;
43429;SDS011;29028;43.234;27.896;2022-07-31T05:23:21;8.80;;;7.50;;
43429;SDS011;29028;43.234;27.896;2022-07-31T05:23:44;8.57;;;7.70;;
43429;SDS011;29028;43.234;27.896;2022-07-31T05:24:06;8.95;;;7.47;;
43429;SDS011;29028;43.234;27.896;2022-07-31T05:24:27;10.35;;;7.63;;
43429;SDS011;29028;43.234;27.896;2022-07-31T05:24:49;10.68;;;7.82;;
43429;SDS011;29028;43.234;27.896;2022-07-31T05:25:09;11.13;;;7.85;;
43429;SDS011;29028;43.234;27.896;2022-07-31T05:25:30;11.88;;;8.05;;
43429;SDS011;29028;43.234;27.896;2022-07-31T05:25:51;9.07;;;7.93;;
43429;SDS011;29028;43.234;27.896;2022-07-31T05:26:12;8.75;;;7.85;;
43429;SDS011;29028;43.234;27.896;2022-07-31T05:26:35;9.57;;;7.90;;
43429;SDS011;29028;43.234;27.896;2022-07-31T05:26:56;9.43;;;7.70;;
43429;SDS011;29028;43.234;27.896;2022-07-31T05:27:17;10.05;;;7.65;;
43429;SDS011;29028;43.234;27.896;2022-07-31T05:27:41;9.02;;;7.97;;
43429;SDS011;29028;43.234;27.896;2022-07-31T05:28:02;10.25;;;7.88;;
43429;SDS011;29028;43.234;27.896;2022-07-31T05:28:23;9.93;;;7.50;;
43429;SDS011;29028;43.234;27.896;2022-07-31T05:28:43;9.60;;;7.32;;
43429;SDS011;29028;43.234;27.896;2022-07-31T05:29:05;9.85;;;7.70;;
43429;SDS011;29028;43.234;27.896;2022-07-31T05:29:27;10.45;;;8.07;;
43429;SDS011;29028;43.234;27.896;2022-07-31T05:29:48;8.68;;;7.78;;
43429;SDS011;29028;43.234;27.896;2022-07-31T05:30:09;8.90;;;7.40;;
43429;SDS011;29028;43.234;27.896;2022-07-31T05:30:31;7.78;;;6.85;;
43429;SDS011;29028;43.234;27.896;2022-07-31T05:30:53;10.43;;;7.18;;
43429;SDS011;29028;43.234;27.896;2022-07-31T05:31:14;8.48;;;7.00;;
43429;SDS011;29028;43.234;27.896;2022-07-31T05:31:36;8.77;;;7.25;;
43429;SDS011;29028;43.234;27.896;2022-07-31T05:31:57;8.57;;;7.30;;
43429;SDS011;29028;43.234;27.896;2022-07-31T05:32:19;7.70;;;6.80;;
43429;SDS011;29028;43.234;27.896;2022-07-31T05:32:40;8.65;;;7.03;;
43429;SDS011;29028;43.234;27.896;2022-07-31T05:33:02;10.05;;;6.88;;
43429;SDS011;29028;43.234;27.896;2022-07-31T05:33:24;8.75;;;6.97;;
43429;SDS011;29028;43.234;27.896;2022-07-31T05:33:45;8.23;;;6.82;;
43429;SDS011;29028;43.234;27.896;2022-07-31T05:34:08;9.82;;;7.07;;
43429;SDS011;29028;43.234;27.896;2022-07-31T05:34:29;9.68;;;7.13;;
43429;SDS011;29028;43.234;27.896;2022-07-31T05:34:50;8.27;;;7.07;;
43429;SDS011;29028;43.234;27.896;2022-07-31T05:35:12;8.35;;;7.10;;
43429;SDS011;29028;43.234;27.896;2022-07-31T05:35:33;7.93;;;7.10;;
43429;SDS011;29028;43.234;27.896;2022-07-31T05:35:53;8.18;;;6.60;;
43429;SDS011;29028;43.234;27.896;2022-07-31T05:36:15;8.07;;;7.22;;
43429;SDS011;29028;43.234;27.896;2022-07-31T05:36:36;9.25;;;6.80;;
43429;SDS011;29028;43.234;27.896;2022-07-31T05:36:58;9.13;;;6.90;;
43429;SDS011;29028;43.234;27.896;2022-07-31T05:37:20;8.75;;;7.35;;
43429;SDS011;29028;43.234;27.896;2022-07-31T05:37:41;7.95;;;7.05;;
43429;SDS011;29028;43.234;27.896;2022-07-31T05:38:01;7.60;;;6.82;;
43429;SDS011;29028;43.234;27.896;2022-07-31T05:38:22;7.75;;;6.97;;
43429;SDS011;29028;43.234;27.896;2022-07-31T05:38:44;10.23;;;6.80;;
43429;SDS011;29028;43.234;27.896;2022-07-31T05:39:05;7.78;;;6.75;;
43429;SDS011;29028;43.234;27.896;2022-07-31T05:39:26;8.00;;;6.97;;
43429;SDS011;29028;43.234;27.896;2022-07-31T05:39:47;8.85;;;6.75;;
43429;SDS011;29028;43.234;27.896;2022-07-31T05:40:09;8.43;;;6.78;;
43429;SDS011;29028;43.234;27.896;2022-07-31T05:40:31;8.23;;;6.60;;
43429;SDS011;29028;43.234;27.896;2022-07-31T05:40:51;8.02;;;6.80;;
43429;SDS011;29028;43.234;27.896;2022-07-31T05:41:12;8.10;;;6.55;;
43429;SDS011;29028;43.234;27.896;2022-07-31T05:41:34;9.05;;;6.60;;
43429;SDS011;29028;43.234;27.896;2022-07-31T05:41:56;7.78;;;6.63;;
43429;SDS011;29028;43.234;27.896;2022-07-31T05:42:16;7.43;;;6.68;;
43429;SDS011;29028;43.234;27.896;2022-07-31T05:42:37;7.03;;;6.32;;
43429;SDS011;29028;43.234;27.896;2022-07-31T05:42:58;7.30;;;6.60;;
43429;SDS011;29028;43.234;27.896;2022-07-31T05:43:19;7.00;;;6.40;;
43429;SDS011;29028;43.234;27.896;2022-07-31T05:43:41;7.30;;;6.63;;
43429;SDS011;29028;43.234;27.896;2022-07-31T05:44:02;7.20;;;6.50;;
43429;SDS011;29028;43.234;27.896;2022-07-31T05:44:23;7.82;;;6.50;;
43429;SDS011;29028;43.234;27.896;2022-07-31T05:44:44;7.20;;;6.38;;
43429;SDS011;29028;43.234;27.896;2022-07-31T05:45:06;8.05;;;6.90;;
43429;SDS011;29028;43.234;27.896;2022-07-31T05:45:28;9.40;;;6.72;;
43429;SDS011;29028;43.234;27.896;2022-07-31T05:45:48;8.45;;;6.50;;
43429;SDS011;29028;43.234;27.896;2022-07-31T05:46:09;7.83;;;6.83;;
43429;SDS011;29028;43.234;27.896;2022-07-31T05:46:33;8.65;;;6.53;;
43429;SDS011;29028;43.234;27.896;2022-07-31T05:46:55;8.30;;;6.60;;
43429;SDS011;29028;43.234;27.896;2022-07-31T05:47:15;8.73;;;6.80;;
43429;SDS011;29028;43.234;27.896;2022-07-31T05:47:36;8.15;;;6.55;;
43429;SDS011;29028;43.234;27.896;2022-07-31T05:47:57;7.25;;;6.25;;
43429;SDS011;29028;43.234;27.896;2022-07-31T05:48:20;7.32;;;6.28;;
43429;SDS011;29028;43.234;27.896;2022-07-31T05:48:42;7.40;;;6.20;;
43429;SDS011;29028;43.234;27.896;2022-07-31T05:49:03;8.02;;;6.45;;
43429;SDS011;29028;43.234;27.896;2022-07-31T05:49:24;7.60;;;6.63;;
43429;SDS011;29028;43.234;27.896;2022-07-31T05:49:47;7.10;;;6.25;;
43429;SDS011;29028;43.234;27.896;2022-07-31T05:50:09;7.03;;;6.32;;
43429;SDS011;29028;43.234;27.896;2022-07-31T05:50:30;7.05;;;6.35;;
43429;SDS011;29028;43.234;27.896;2022-07-31T05:50:53;7.00;;;6.30;;
43429;SDS011;29028;43.234;27.896;2022-07-31T05:51:14;7.88;;;6.25;;
43429;SDS011;29028;43.234;27.896;2022-07-31T05:51:35;6.90;;;6.13;;
43429;SDS011;29028;43.234;27.896;2022-07-31T05:51:56;6.85;;;6.15;;
43429;SDS011;29028;43.234;27.896;2022-07-31T05:52:17;7.10;;;6.40;;
43429;SDS011;29028;43.234;27.896;2022-07-31T05:52:38;7.97;;;6.40;;
43429;SDS011;29028;43.234;27.896;2022-07-31T05:53:00;8.40;;;6.43;;
43429;SDS011;29028;43.234;27.896;2022-07-31T05:53:21;7.80;;;6.65;;
43429;SDS011;29028;43.234;27.896;2022-07-31T05:53:42;7.65;;;6.22;;
43429;SDS011;29028;43.234;27.896;2022-07-31T05:54:03;8.95;;;6.45;;
43429;SDS011;29028;43.234;27.896;2022-07-31T05:54:24;8.83;;;6.30;;
43429;SDS011;29028;43.234;27.896;2022-07-31T05:54:46;7.03;;;6.28;;
43429;SDS011;29028;43.234;27.896;2022-07-31T05:55:07;7.10;;;6.32;;
43429;SDS011;29028;43.234;27.896;2022-07-31T05:55:28;9.32;;;6.60;;
43429;SDS011;29028;43.234;27.896;2022-07-31T05:55:49;7.68;;;6.75;;
43429;SDS011;29028;43.234;27.896;2022-07-31T05:56:10;7.22;;;6.53;;
43429;SDS011;29028;43.234;27.896;2022-07-31T05:56:32;7.55;;;6.75;;
43429;SDS011;29028;43.234;27.896;2022-07-31T05:56:53;7.03;;;6.30;;
43429;SDS011;29028;43.234;27.896;2022-07-31T05:57:14;7.10;;;6.40;;
43429;SDS011;29028;43.234;27.896;2022-07-31T05:57:34;7.35;;;6.50;;
43429;SDS011;29028;43.234;27.896;2022-07-31T05:57:55;8.07;;;6.57;;
43429;SDS011;29028;43.234;27.896;2022-07-31T05:58:17;7.20;;;6.50;;
43429;SDS011;29028;43.234;27.896;2022-07-31T05:58:39;10.45;;;6.90;;
43429;SDS011;29028;43.234;27.896;2022-07-31T05:59:00;7.53;;;6.57;;
43429;SDS011;29028;43.234;27.896;2022-07-31T05:59:21;7.65;;;6.85;;
43429;SDS011;29028;43.234;27.896;2022-07-31T05:59:43;8.07;;;6.65;;
43429;SDS011;29028;43.234;27.896;2022-07-31T06:00:06;7.28;;;6.57;;
43429;SDS011;29028;43.234;27.896;2022-07-31T06:00:28;8.30;;;6.72;;
43429;SDS011;29028;43.234;27.896;2022-07-31T06:00:50;8.02;;;6.78;;
43429;SDS011;29028;43.234;27.896;2022-07-31T06:01:11;7.60;;;6.77;;
43429;SDS011;29028;43.234;27.896;2022-07-31T06:01:33;8.90;;;6.72;;
43429;SDS011;29028;43.234;27.896;2022-07-31T06:01:54;8.95;;;7.00;;
43429;SDS011;29028;43.234;27.896;2022-07-31T06:02:16;7.60;;;6.80;;
43429;SDS011;29028;43.234;27.896;2022-07-31T06:02:37;9.43;;;6.70;;
43429;SDS011;29028;43.234;27.896;2022-07-31T06:02:58;9.23;;;6.63;;
43429;SDS011;29028;43.234;27.896;2022-07-31T06:03:22;7.57;;;6.50;;
43429;SDS011;29028;43.234;27.896;2022-07-31T06:03:46;7.18;;;6.47;;
43429;SDS011;29028;43.234;27.896;2022-07-31T06:04:07;7.20;;;6.50;;
43429;SDS011;29028;43.234;27.896;2022-07-31T06:04:28;7.20;;;6.50;;
43429;SDS011;29028;43.234;27.896;2022-07-31T06:04:49;7.13;;;6.30;;
43429;SDS011;29028;43.234;27.896;2022-07-31T06:05:10;7.57;;;6.50;;
43429;SDS011;29028;43.234;27.896;2022-07-31T06:05:32;7.20;;;6.50;;
43429;SDS011;29028;43.234;27.896;2022-07-31T06:05:52;9.30;;;6.30;;
43429;SDS011;29028;43.234;27.896;2022-07-31T06:06:13;9.43;;;6.45;;
43429;SDS011;29028;43.234;27.896;2022-07-31T06:06:35;8.02;;;6.32;;
43429;SDS011;29028;43.234;27.896;2022-07-31T06:06:56;7.70;;;6.43;;
43429;SDS011;29028;43.234;27.896;2022-07-31T06:07:17;7.10;;;6.00;;
43429;SDS011;29028;43.234;27.896;2022-07-31T06:07:38;8.90;;;6.22;;
43429;SDS011;29028;43.234;27.896;2022-07-31T06:08:00;8.57;;;6.32;;